Hlavní strana
METAR-TAF:

METAR-TAF

Letiště :

Florianópolis, Santa Catarina, Brazílie

zeměpisná šířka: 27-40S, zeměpisná délka: 048-33W, výška: 5 m

Aktuální stav počasí

Zpráva byla vytvořena před 52 minutami, v 11:00 UTC
Severní vítr 11 kt
Teplota 26°C
Vlhkost vzduchu 79%
Tlak 1015 hPa
Viditelnost 10 km a více
Žádná oblačnost pod 1500 m, nevyskytují se cumulonimby.

METAR: SBFL 121100Z 36011KT CAVOK 26/22 Q1015

Čas: 09:52 (11:52 UTC)

Předpověď počasí

Zpráva byla vytvořena před 3 hodinami a 7 minutami, v 08:45 UTC
Předpověď platná od 12 v 12 UTC do 13 v 12 UTC
Severní vítr 6 kt
Viditelnost 10 km a více
Žádná oblačnost pod 1500 m, nevyskytují se cumulonimby.
Změna
od 12 v 12 UTC do 12 v 13 UTC
Severní vítr 9 kt
Viditelnost 10 km a více
Skoro jasno ve výšce 4000 ft
Změna
od 12 v 20 UTC do 12 v 22 UTC
Viditelnost 10 km a více
Žádná oblačnost pod 1500 m, nevyskytují se cumulonimby.

TAF: SBFL 120845Z 1212/1312 36006KT CAVOK TX31/1218Z TN22/1308Z BECMG 1212/1213 01009KT 9999 FEW040 BECMG 1220/1222 CAVOK RMK PEB

Stav a předpovědi počasí z více než 4 000 letišť (zprávy METAR a TAF).

Červené a žluté tečky na mapě představují dostupné meteorologické stanice.

Když kurzor umístíte na tečku, zobrazí se název stanice.

Pak kliknutím zobrazíte stav a předpověď počasí.

Chcete-li změnit mapu, kliknutím na zelené tlačítko se znaménkem +mapu přiblížíte, kliknutím na zelené tlačítko se znaménkem – mapu oddálíte a kliknutím na zelené šipky přejdete na sousední mapy.


METAR-TAF: